Time;durP1;ratioP1;P1;durP2;ratioP2;P2;SDS_P1;SDS_P2;PMS_P1;PMS_P2;Temp;Humidity;BMP_temperature;BMP_pressure;BME280_temperature;BME280_humidity;BME280_pressure;Samples;Min_cycle;Max_cycle;Signal;HPM_P1;HPM_P2
2022/05/15 00:02:37;;;;;;;14.17;3.87;;;;;;;;;;5055691;28;20470;-77
2022/05/15 00:05:02;;;;;;;22.02;5.30;;;;;;;;;;5073125;28;20265;-78
2022/05/15 00:07:28;;;;;;;11.48;4.20;;;;;;;;;;5055527;28;20506;-78
2022/05/15 00:09:56;;;;;;;14.97;4.03;;;;;;;;;;5055392;28;20032;-79
2022/05/15 00:12:21;;;;;;;13.10;4.18;;;;;;;;;;5038926;28;20028;-77
2022/05/15 00:14:47;;;;;;;15.27;3.97;;;;;;;;;;5072559;28;20111;-75
2022/05/15 00:17:13;;;;;;;17.15;5.57;;;;;;;;;;5055332;28;20027;-77
2022/05/15 00:19:39;;;;;;;12.10;4.45;;;;;;;;;;5072821;28;20016;-77
2022/05/15 00:22:06;;;;;;;12.25;4.22;;;;;;;;;;5055085;28;20028;-78
2022/05/15 00:24:32;;;;;;;12.60;5.00;;;;;;;;;;5072151;28;20036;-77
2022/05/15 00:26:58;;;;;;;15.23;4.63;;;;;;;;;;5038034;28;20036;-77
2022/05/15 00:29:27;;;;;;;16.33;4.30;;;;;;;;;;5055195;28;20032;-77
2022/05/15 00:31:52;;;;;;;14.07;4.60;;;;;;;;;;5072910;28;20064;-78
2022/05/15 00:34:18;;;;;;;18.42;4.82;;;;;;;;;;5054683;28;20056;-76
2022/05/15 00:36:43;;;;;;;14.55;4.18;;;;;;;;;;5054764;28;20499;-76
2022/05/15 00:39:09;;;;;;;13.05;5.90;;;;;;;;;;5076327;28;20540;-77
2022/05/15 00:41:37;;;;;;;15.65;5.03;;;;;;;;;;5056740;28;20020;-77
2022/05/15 00:44:03;;;;;;;18.65;5.10;;;;;;;;;;5038303;28;20038;-77
2022/05/15 00:46:31;;;;;;;14.43;4.68;;;;;;;;;;5021820;28;20032;-77
2022/05/15 00:48:59;;;;;;;16.05;4.72;;;;;;;;;;5072340;28;20036;-78
2022/05/15 00:51:31;;;;;;;15.85;5.80;;;;;;;;;;5021632;28;20096;-77
2022/05/15 00:54:00;;;;;;;17.00;6.15;;;;;;;;;;5071035;28;20040;-78
2022/05/15 00:56:28;;;;;;;14.25;4.82;;;;;;;;;;5054469;28;20033;-77
2022/05/15 00:58:56;;;;;;;16.42;5.05;;;;;;;;;;5054335;28;20031;-77
2022/05/15 01:01:22;;;;;;;18.40;5.00;;;;;;;;;;5072574;28;20033;-77
2022/05/15 01:03:48;;;;;;;14.20;4.80;;;;;;;;;;5053879;28;20031;-78
2022/05/15 01:06:16;;;;;;;;;;;;;;;;;;5055151;28;20028;-78
2022/05/15 01:08:41;;;;;;;18.45;4.90;;;;;;;;;;5037912;28;20390;-77
2022/05/15 01:11:11;;;;;;;15.90;4.85;;;;;;;;;;5054358;28;20097;-77
2022/05/15 01:13:40;;;;;;;15.48;4.97;;;;;;;;;;5037203;28;20048;-78
2022/05/15 01:16:05;;;;;;;18.73;5.55;;;;;;;;;;5037566;28;20081;-77
2022/05/15 01:18:32;;;;;;;14.70;5.28;;;;;;;;;;5054144;28;20107;-78
2022/05/15 01:20:59;;;;;;;15.57;5.45;;;;;;;;;;5072239;28;20029;-76
2022/05/15 01:23:25;;;;;;;13.52;5.80;;;;;;;;;;5037356;28;20316;-77
2022/05/15 01:25:52;;;;;;;17.75;6.15;;;;;;;;;;5072030;28;20032;-77
2022/05/15 01:28:19;;;;;;;14.50;5.50;;;;;;;;;;5054173;28;20125;-76
2022/05/15 01:30:47;;;;;;;16.95;6.10;;;;;;;;;;5053982;28;20039;-80
2022/05/15 01:33:12;;;;;;;14.05;5.20;;;;;;;;;;5071524;28;20103;-78
2022/05/15 01:35:38;;;;;;;15.18;5.07;;;;;;;;;;5041086;28;20066;-77
2022/05/15 01:38:04;;;;;;;13.20;5.53;;;;;;;;;;5056208;28;20025;-77
2022/05/15 01:40:30;;;;;;;12.45;5.07;;;;;;;;;;5053874;28;20124;-76
2022/05/15 01:42:55;;;;;;;14.88;5.05;;;;;;;;;;5071397;28;20031;-78
2022/05/15 01:45:29;;;;;;;18.90;6.22;;;;;;;;;;5039246;28;20488;-78
2022/05/15 01:47:55;;;;;;;18.08;6.00;;;;;;;;;;5037203;28;20040;-78
2022/05/15 01:50:21;;;;;;;17.98;6.35;;;;;;;;;;5053716;28;20033;-77
2022/05/15 01:52:47;;;;;;;15.40;6.15;;;;;;;;;;5036887;28;20029;-78
2022/05/15 01:55:12;;;;;;;15.50;5.63;;;;;;;;;;5053504;28;20483;-78
2022/05/15 01:57:40;;;;;;;18.15;6.03;;;;;;;;;;5021160;28;20032;-78
2022/05/15 02:00:11;;;;;;;16.58;5.90;;;;;;;;;;5037265;28;20074;-79
2022/05/15 02:02:39;;;;;;;15.27;5.80;;;;;;;;;;5071439;28;20077;-78
2022/05/15 02:05:05;;;;;;;15.88;5.50;;;;;;;;;;5039780;28;20051;-78
2022/05/15 02:07:31;;;;;;;19.38;6.00;;;;;;;;;;5075670;28;20099;-79
2022/05/15 02:09:59;;;;;;;16.25;5.90;;;;;;;;;;5041162;28;20322;-78
2022/05/15 02:12:25;;;;;;;16.85;5.35;;;;;;;;;;5041017;28;20105;-78
2022/05/15 02:14:50;;;;;;;17.15;5.70;;;;;;;;;;5040545;28;20484;-79
2022/05/15 02:17:16;;;;;;;15.40;5.80;;;;;;;;;;5057513;28;20556;-79
2022/05/15 02:19:42;;;;;;;18.63;6.00;;;;;;;;;;5057493;28;20055;-78
2022/05/15 02:22:07;;;;;;;20.33;6.00;;;;;;;;;;5024546;28;20028;-78
2022/05/15 02:24:33;;;;;;;13.35;5.63;;;;;;;;;;5074885;28;20078;-80
2022/05/15 02:26:58;;;;;;;19.13;6.15;;;;;;;;;;5075180;28;20035;-77
2022/05/15 02:29:24;;;;;;;17.63;5.82;;;;;;;;;;5024417;28;20539;-78
2022/05/15 02:31:49;;;;;;;15.60;5.65;;;;;;;;;;5040776;28;20380;-78
2022/05/15 02:34:16;;;;;;;12.07;5.10;;;;;;;;;;5056932;28;20175;-77
2022/05/15 02:36:42;;;;;;;17.67;5.38;;;;;;;;;;5057265;28;20107;-78
2022/05/15 02:39:07;;;;;;;14.60;5.53;;;;;;;;;;5057224;28;20024;-80
2022/05/15 02:41:34;;;;;;;12.80;4.95;;;;;;;;;;5024155;28;20521;-81
2022/05/15 02:44:00;;;;;;;11.82;5.00;;;;;;;;;;5023751;28;20028;-79
2022/05/15 02:46:25;;;;;;;14.70;4.88;;;;;;;;;;5074846;28;20035;-79
2022/05/15 02:51:35;;;;;;;16.95;5.20;;;;;;;;;;5056891;28;20047;-78
2022/05/15 02:54:01;;;;;;;17.23;5.47;;;;;;;;;;5056457;28;20475;-79
2022/05/15 02:56:28;;;;;;;15.43;6.25;;;;;;;;;;5056737;28;20095;-78
2022/05/15 02:58:54;;;;;;;16.25;5.70;;;;;;;;;;5056928;28;20146;-79
2022/05/15 03:01:19;;;;;;;16.30;5.32;;;;;;;;;;5057246;28;20492;-77
2022/05/15 03:03:45;;;;;;;12.63;5.28;;;;;;;;;;5056215;28;20162;-77
2022/05/15 03:06:10;;;;;;;15.50;5.82;;;;;;;;;;5056636;28;20040;-79
2022/05/15 03:08:38;;;;;;;13.35;5.30;;;;;;;;;;5056625;28;20024;-80
2022/05/15 03:11:04;;;;;;;10.95;4.85;;;;;;;;;;5023630;28;20036;-78
2022/05/15 03:13:30;;;;;;;20.67;5.90;;;;;;;;;;5056224;28;20036;-77
2022/05/15 03:15:56;;;;;;;18.25;5.65;;;;;;;;;;5055396;28;20024;-79
2022/05/15 03:18:23;;;;;;;15.57;5.40;;;;;;;;;;5056644;28;20035;-78
2022/05/15 03:20:49;;;;;;;21.95;5.28;;;;;;;;;;5057212;28;20029;-78
2022/05/15 03:23:15;;;;;;;16.35;5.93;;;;;;;;;;5040147;28;20039;-78
2022/05/15 03:25:40;;;;;;;13.43;6.15;;;;;;;;;;5058227;28;20056;-78
2022/05/15 03:28:09;;;;;;;21.23;5.55;;;;;;;;;;5042955;28;20115;-79
2022/05/15 03:30:35;;;;;;;22.13;5.88;;;;;;;;;;5057738;28;20028;-78
2022/05/15 03:33:01;;;;;;;20.52;6.40;;;;;;;;;;5056904;28;20056;-78
2022/05/15 03:35:26;;;;;;;16.75;5.15;;;;;;;;;;5056343;28;20417;-79
2022/05/15 03:37:52;;;;;;;18.55;6.15;;;;;;;;;;5039472;28;20407;-78
2022/05/15 03:40:18;;;;;;;17.33;5.50;;;;;;;;;;5039347;28;20395;-78
2022/05/15 03:42:43;;;;;;;15.98;6.20;;;;;;;;;;5073407;28;20029;-77
2022/05/15 03:45:09;;;;;;;17.90;6.55;;;;;;;;;;5039105;28;20468;-79
2022/05/15 03:47:35;;;;;;;16.17;5.45;;;;;;;;;;5073889;28;20055;-77
2022/05/15 03:50:02;;;;;;;18.58;5.90;;;;;;;;;;5055646;28;20033;-78
2022/05/15 03:52:27;;;;;;;16.10;5.22;;;;;;;;;;5073642;28;20035;-78
2022/05/15 03:54:53;;;;;;;18.25;6.00;;;;;;;;;;5073080;28;20040;-79
2022/05/15 03:57:19;;;;;;;16.10;6.10;;;;;;;;;;5039301;28;20032;-78
2022/05/15 03:59:44;;;;;;;11.18;4.93;;;;;;;;;;5022781;28;20035;-79
2022/05/15 04:02:10;;;;;;;15.35;5.63;;;;;;;;;;5055721;28;20391;-78
2022/05/15 04:04:35;;;;;;;20.42;5.30;;;;;;;;;;5055474;28;20498;-78
2022/05/15 04:07:02;;;;;;;19.95;6.03;;;;;;;;;;5055597;28;20608;-79
2022/05/15 04:09:29;;;;;;;15.07;5.40;;;;;;;;;;5039067;28;20313;-77
2022/05/15 04:11:54;;;;;;;12.55;5.18;;;;;;;;;;5022588;28;20059;-80
2022/05/15 04:14:20;;;;;;;16.40;4.70;;;;;;;;;;5055136;28;20491;-79
2022/05/15 04:16:45;;;;;;;14.02;5.13;;;;;;;;;;5073224;28;20029;-79
2022/05/15 04:19:11;;;;;;;11.52;5.00;;;;;;;;;;5055496;28;20029;-78
2022/05/15 04:21:37;;;;;;;14.43;4.57;;;;;;;;;;5038688;28;20020;-79
2022/05/15 04:24:07;;;;;;;18.40;5.85;;;;;;;;;;5041171;28;20033;-81
2022/05/15 04:26:33;;;;;;;16.02;4.95;;;;;;;;;;5060293;28;20029;-79
2022/05/15 04:28:58;;;;;;;11.63;4.75;;;;;;;;;;5055346;28;20032;-79
2022/05/15 04:31:24;;;;;;;15.27;4.70;;;;;;;;;;5038385;28;20036;-79
2022/05/15 04:33:52;;;;;;;16.25;5.03;;;;;;;;;;5054663;28;20505;-79
2022/05/15 04:36:18;;;;;;;13.95;6.00;;;;;;;;;;5038553;28;20055;-78
2022/05/15 04:38:43;;;;;;;15.00;6.15;;;;;;;;;;5054883;28;20475;-79
2022/05/15 04:41:09;;;;;;;13.23;4.55;;;;;;;;;;5072773;28;20085;-80
2022/05/15 04:43:34;;;;;;;15.30;4.93;;;;;;;;;;5054257;28;20518;-78
2022/05/15 04:46:03;;;;;;;14.70;4.47;;;;;;;;;;5054877;28;20051;-78
2022/05/15 04:48:29;;;;;;;17.80;5.38;;;;;;;;;;5072704;28;20086;-78
2022/05/15 04:50:54;;;;;;;15.18;4.35;;;;;;;;;;5072479;28;20040;-79
2022/05/15 04:53:20;;;;;;;17.13;5.20;;;;;;;;;;5072179;28;20163;-77
2022/05/15 04:55:45;;;;;;;14.75;5.07;;;;;;;;;;5054908;28;20039;-78
2022/05/15 04:58:11;;;;;;;13.95;5.07;;;;;;;;;;5072981;28;20028;-79
2022/05/15 05:00:37;;;;;;;9.20;4.38;;;;;;;;;;5054797;28;20073;-79
2022/05/15 05:03:05;;;;;;;16.75;4.82;;;;;;;;;;5072411;28;20107;-80
2022/05/15 05:05:31;;;;;;;12.77;4.80;;;;;;;;;;5072480;28;20029;-78
2022/05/15 05:07:56;;;;;;;15.27;4.10;;;;;;;;;;5055348;28;20040;-78
2022/05/15 05:10:21;;;;;;;13.40;4.13;;;;;;;;;;5055122;28;20086;-79
2022/05/15 05:12:47;;;;;;;14.55;4.13;;;;;;;;;;5039104;28;20039;-80
2022/05/15 05:15:13;;;;;;;11.63;4.80;;;;;;;;;;5074050;28;20020;-78
2022/05/15 05:17:39;;;;;;;11.00;4.43;;;;;;;;;;5057597;28;20457;-80
2022/05/15 05:20:05;;;;;;;11.80;4.40;;;;;;;;;;5041078;28;20021;-80
2022/05/15 05:22:31;;;;;;;11.55;4.20;;;;;;;;;;5074053;28;20028;-78
2022/05/15 05:24:56;;;;;;;12.85;4.88;;;;;;;;;;5059238;28;20026;-79
2022/05/15 05:27:23;;;;;;;13.18;4.50;;;;;;;;;;5085575;28;20028;-79
2022/05/15 05:29:49;;;;;;;13.15;4.05;;;;;;;;;;5093177;28;20012;-77
2022/05/15 05:32:15;;;;;;;15.88;4.78;;;;;;;;;;5073107;28;20422;-78
2022/05/15 05:34:40;;;;;;;15.48;4.68;;;;;;;;;;5091903;28;20067;-76
2022/05/15 05:37:06;;;;;;;16.50;4.82;;;;;;;;;;5074434;28;20032;-78
2022/05/15 05:39:31;;;;;;;15.13;5.43;;;;;;;;;;5071787;28;20484;-77
2022/05/15 05:41:57;;;;;;;17.40;4.78;;;;;;;;;;5089936;28;20084;-77
2022/05/15 05:44:24;;;;;;;12.88;4.10;;;;;;;;;;5069781;28;20086;-76
2022/05/15 05:46:49;;;;;;;11.30;3.28;;;;;;;;;;5086057;28;20059;-77
2022/05/15 05:49:14;;;;;;;17.10;8.25;;;;;;;;;;5047183;28;20487;-77
2022/05/15 05:51:40;;;;;;;12.18;5.20;;;;;;;;;;5067760;28;20089;-77
2022/05/15 05:54:06;;;;;;;11.88;3.45;;;;;;;;;;5048634;28;20025;-77
2022/05/15 05:56:31;;;;;;;12.50;3.53;;;;;;;;;;5079305;28;20472;-79
2022/05/15 05:58:57;;;;;;;10.77;3.00;;;;;;;;;;5076387;28;20029;-77
2022/05/15 06:01:22;;;;;;;10.95;3.40;;;;;;;;;;5076331;28;20545;-79
2022/05/15 06:06:32;;;;;;;10.45;3.00;;;;;;;;;;5040654;28;20032;-78
2022/05/15 06:08:58;;;;;;;12.13;2.58;;;;;;;;;;5073251;28;20535;-77
2022/05/15 06:11:23;;;;;;;11.40;2.75;;;;;;;;;;5054360;28;20029;-78
2022/05/15 06:13:48;;;;;;;8.13;2.85;;;;;;;;;;5053545;28;20032;-80
2022/05/15 06:16:14;;;;;;;14.75;4.63;;;;;;;;;;5071634;28;20487;-79
2022/05/15 06:18:40;;;;;;;9.50;3.22;;;;;;;;;;5071701;28;20024;-78
2022/05/15 06:21:05;;;;;;;13.77;3.05;;;;;;;;;;5071836;28;20048;-78
2022/05/15 06:23:32;;;;;;;14.23;3.85;;;;;;;;;;5053354;28;20040;-80
2022/05/15 06:25:57;;;;;;;11.13;3.03;;;;;;;;;;5071363;28;20033;-79
2022/05/15 06:28:23;;;;;;;12.38;3.22;;;;;;;;;;5071493;28;20028;-79
2022/05/15 06:30:48;;;;;;;9.90;3.10;;;;;;;;;;5020485;28;20459;-80
2022/05/15 06:33:13;;;;;;;10.07;3.10;;;;;;;;;;5053121;28;20131;-78
2022/05/15 06:35:39;;;;;;;11.70;2.88;;;;;;;;;;5053487;28;20103;-81
2022/05/15 06:38:05;;;;;;;8.48;2.55;;;;;;;;;;5037009;28;20492;-77
2022/05/15 06:40:37;;;;;;;9.45;2.80;;;;;;;;;;5071715;28;20024;-79
2022/05/15 06:43:02;;;;;;;11.32;2.80;;;;;;;;;;5053688;28;20029;-79
2022/05/15 06:45:28;;;;;;;12.73;2.78;;;;;;;;;;5037584;28;20035;-78
2022/05/15 06:47:54;;;;;;;5.43;2.50;;;;;;;;;;5054539;28;20142;-79
2022/05/15 06:50:20;;;;;;;11.05;2.30;;;;;;;;;;5054405;28;20502;-82
2022/05/15 06:52:45;;;;;;;8.60;2.53;;;;;;;;;;5075031;28;20036;-78
2022/05/15 06:55:15;;;;;;;11.00;3.10;;;;;;;;;;5057186;28;20075;-79
2022/05/15 06:57:41;;;;;;;10.23;2.80;;;;;;;;;;5024515;28;20024;-78
2022/05/15 07:00:10;;;;;;;9.38;2.80;;;;;;;;;;5040770;28;20081;-80
2022/05/15 07:02:35;;;;;;;9.45;2.85;;;;;;;;;;5057177;28;20024;-78
2022/05/15 07:05:01;;;;;;;11.70;3.58;;;;;;;;;;5056969;28;20029;-78
2022/05/15 07:07:37;;;;;;;9.40;2.90;;;;;;;;;;5075072;28;20033;-79
2022/05/15 07:10:04;;;;;;;9.98;2.83;;;;;;;;;;5074727;28;20033;-79
2022/05/15 07:12:29;;;;;;;11.90;3.33;;;;;;;;;;5040571;28;20056;-80
2022/05/15 07:14:55;;;;;;;9.45;2.60;;;;;;;;;;5056489;28;20109;-79
2022/05/15 07:17:20;;;;;;;11.27;2.83;;;;;;;;;;5057001;28;20024;-80
2022/05/15 07:19:46;;;;;;;14.63;2.85;;;;;;;;;;5056773;28;20016;-80
2022/05/15 07:22:11;;;;;;;14.73;2.80;;;;;;;;;;5056727;28;20024;-78
2022/05/15 07:25:02;;;;;;;7.55;2.42;;;;;;;;;;5039571;28;20036;-78
2022/05/15 07:27:27;;;;;;;13.13;2.88;;;;;;;;;;5056580;28;20052;-78
2022/05/15 07:29:53;;;;;;;15.13;3.65;;;;;;;;;;5057522;28;20622;-78
2022/05/15 07:32:19;;;;;;;12.90;2.92;;;;;;;;;;5074389;28;20024;-77
2022/05/15 07:34:45;;;;;;;13.73;4.28;;;;;;;;;;5056286;28;20039;-79
2022/05/15 07:37:11;;;;;;;12.38;2.80;;;;;;;;;;5056521;28;20391;-80
2022/05/15 07:39:41;;;;;;;11.93;4.10;;;;;;;;;;5056580;28;20107;-79
2022/05/15 07:42:07;;;;;;;10.75;2.88;;;;;;;;;;5074516;28;20021;-80
2022/05/15 07:44:33;;;;;;;10.18;2.78;;;;;;;;;;5074194;28;20399;-81
2022/05/15 07:47:02;;;;;;;11.23;2.80;;;;;;;;;;5057233;28;20131;-80
2022/05/15 07:49:28;;;;;;;9.15;2.25;;;;;;;;;;5075612;28;20024;-79
2022/05/15 07:51:53;;;;;;;8.25;2.25;;;;;;;;;;5074882;28;20257;-79
2022/05/15 07:54:23;;;;;;;8.52;2.30;;;;;;;;;;5057311;28;20115;-79
2022/05/15 07:56:49;;;;;;;9.68;2.35;;;;;;;;;;5074841;28;20048;-77
2022/05/15 07:59:14;;;;;;;8.48;2.58;;;;;;;;;;5074742;28;20017;-80
2022/05/15 08:01:43;;;;;;;9.45;2.63;;;;;;;;;;5040381;28;20515;-79
2022/05/15 08:04:09;;;;;;;9.77;3.00;;;;;;;;;;5074643;28;20029;-78
2022/05/15 08:09:19;;;;;;;12.77;3.60;;;;;;;;;;5074866;28;20107;-79
2022/05/15 08:11:44;;;;;;;11.52;3.20;;;;;;;;;;5077027;28;20203;-76
2022/05/15 08:14:10;;;;;;;11.30;3.25;;;;;;;;;;5056179;28;20559;-78
2022/05/15 08:16:36;;;;;;;9.38;2.50;;;;;;;;;;5073901;28;20086;-77
2022/05/15 08:24:34;;;;;;;18.40;2.72;;;;;;;;;;5073833;28;20032;-75
2022/05/15 08:26:59;;;;;;;19.00;3.15;;;;;;;;;;5075572;28;20039;-76
2022/05/15 08:29:25;;;;;;;8.68;2.72;;;;;;;;;;5075179;28;20036;-76
2022/05/15 08:31:50;;;;;;;11.70;2.78;;;;;;;;;;5075689;28;20056;-79
2022/05/15 08:34:16;;;;;;;13.52;3.40;;;;;;;;;;5075713;28;20458;-76
2022/05/15 08:36:44;;;;;;;10.90;2.38;;;;;;;;;;5058688;28;20059;-78
2022/05/15 08:39:10;;;;;;;10.27;2.30;;;;;;;;;;5041418;28;20059;-78
2022/05/15 08:41:45;;;;;;;11.65;2.67;;;;;;;;;;5054710;28;20028;-77
2022/05/15 08:44:12;;;;;;;11.60;2.78;;;;;;;;;;5090558;28;20016;-78
2022/05/15 08:46:56;;;;;;;10.45;2.72;;;;;;;;;;5089116;28;20036;-80
2022/05/15 08:49:39;;;;;;;12.13;4.07;;;;;;;;;;5083246;28;20038;-76
2022/05/15 08:52:04;;;;;;;11.10;3.20;;;;;;;;;;5076867;28;20041;-77
2022/05/15 08:54:33;;;;;;;14.05;3.83;;;;;;;;;;5073703;28;20035;-79
2022/05/15 08:56:58;;;;;;;;;;;;;;;;;;5073351;28;20041;-78
2022/05/15 08:59:38;;;;;;;16.20;5.10;;;;;;;;;;5088186;22;19926;-79
2022/05/15 09:02:05;;;;;;;13.77;3.17;;;;;;;;;;5041669;28;20491;-76
2022/05/15 09:04:31;;;;;;;17.10;4.63;;;;;;;;;;5092737;28;20020;-76
2022/05/15 09:07:09;;;;;;;15.82;3.15;;;;;;;;;;5076754;28;20046;-78
2022/05/15 09:09:56;;;;;;;11.43;3.22;;;;;;;;;;5087461;28;20028;-78
2022/05/15 09:12:33;;;;;;;9.65;2.60;;;;;;;;;;5014824;28;20491;-76
2022/05/15 09:15:00;;;;;;;15.18;2.28;;;;;;;;;;5021288;28;20029;-77
2022/05/15 09:17:31;;;;;;;16.25;2.95;;;;;;;;;;5072778;28;20033;-77
2022/05/15 09:19:59;;;;;;;14.88;3.25;;;;;;;;;;5072467;28;20016;-78
2022/05/15 09:22:27;;;;;;;11.70;2.95;;;;;;;;;;5054461;28;20495;-76
2022/05/15 09:24:53;;;;;;;11.60;2.47;;;;;;;;;;5053795;28;20404;-77
2022/05/15 09:27:20;;;;;;;12.13;2.80;;;;;;;;;;5054031;28;20033;-76
2022/05/15 09:30:15;;;;;;;15.25;2.45;;;;;;;;;;5054268;28;20020;-76
2022/05/15 09:32:45;;;;;;;9.95;2.75;;;;;;;;;;5033958;28;20562;-78
2022/05/15 09:35:41;;;;;;;12.25;2.72;;;;;;;;;;5071957;28;20514;-77
2022/05/15 09:43:39;;;;;;;11.63;3.13;;;;;;;;;;5055179;28;20028;-76
2022/05/15 09:46:06;;;;;;;18.38;3.45;;;;;;;;;;5054308;28;20028;-78
2022/05/15 09:48:40;;;;;;;11.30;2.53;;;;;;;;;;5037803;28;20082;-77
2022/05/15 09:51:11;;;;;;;14.57;2.80;;;;;;;;;;5054520;28;20025;-77
2022/05/15 09:53:36;;;;;;;12.35;3.30;;;;;;;;;;5054167;28;20025;-77
2022/05/15 09:56:04;;;;;;;12.75;3.33;;;;;;;;;;5054687;28;20407;-78
2022/05/15 09:58:55;;;;;;;15.20;3.05;;;;;;;;;;5054680;28;20025;-77
2022/05/15 10:01:36;;;;;;;13.18;2.65;;;;;;;;;;5025177;28;20414;-76
2022/05/15 10:04:06;;;;;;;13.23;2.83;;;;;;;;;;5072108;28;20487;-78
2022/05/15 10:06:35;;;;;;;13.32;3.17;;;;;;;;;;5037694;28;20109;-78
2022/05/15 10:09:09;;;;;;;17.40;5.25;;;;;;;;;;5038328;28;20032;-78
2022/05/15 10:11:36;;;;;;;13.63;4.45;;;;;;;;;;5021078;28;20029;-76
2022/05/15 10:14:02;;;;;;;16.02;3.92;;;;;;;;;;5053403;28;20494;-78
2022/05/15 10:16:30;;;;;;;12.18;2.90;;;;;;;;;;5053763;28;20037;-78
2022/05/15 10:19:08;;;;;;;13.35;2.80;;;;;;;;;;5037423;28;20553;-75
2022/05/15 10:21:50;;;;;;;12.25;2.67;;;;;;;;;;5053779;28;20086;-78
2022/05/15 10:24:23;;;;;;;9.63;2.55;;;;;;;;;;5054084;28;20024;-78
2022/05/15 10:26:58;;;;;;;8.60;2.35;;;;;;;;;;5075111;28;20025;-77
2022/05/15 10:29:27;;;;;;;12.05;2.70;;;;;;;;;;5058048;28;20036;-77
2022/05/15 10:31:59;;;;;;;8.30;2.42;;;;;;;;;;5057487;28;20030;-78
2022/05/15 10:34:28;;;;;;;10.25;2.72;;;;;;;;;;5040491;28;20484;-78
2022/05/15 10:37:19;;;;;;;11.55;3.15;;;;;;;;;;5075381;28;20111;-78
2022/05/15 10:40:01;;;;;;;12.68;2.85;;;;;;;;;;5019851;28;20552;-78
2022/05/15 10:42:50;;;;;;;8.05;2.28;;;;;;;;;;5074761;28;20032;-77
2022/05/15 10:45:25;;;;;;;11.57;3.15;;;;;;;;;;5074781;28;20028;-77
2022/05/15 10:47:56;;;;;;;10.93;2.97;;;;;;;;;;5075032;28;20024;-78
2022/05/15 10:50:29;;;;;;;10.85;2.92;;;;;;;;;;5057454;28;20105;-78
2022/05/15 10:58:50;;;;;;;13.63;3.33;;;;;;;;;;5074941;28;20028;-77
2022/05/15 11:01:30;;;;;;;15.43;3.17;;;;;;;;;;5075097;28;20373;-78
2022/05/15 11:04:15;;;;;;;10.57;2.78;;;;;;;;;;5056200;28;20017;-77
2022/05/15 11:06:46;;;;;;;11.80;2.90;;;;;;;;;;5074406;28;20028;-74
2022/05/15 11:09:26;;;;;;;12.07;2.47;;;;;;;;;;5074302;28;20028;-76
2022/05/15 11:12:02;;;;;;;8.68;2.83;;;;;;;;;;5056719;28;20296;-77
2022/05/15 11:14:33;;;;;;;12.73;3.20;;;;;;;;;;5074865;28;20070;-78
2022/05/15 11:17:07;;;;;;;9.20;2.65;;;;;;;;;;5056522;28;20071;-77
2022/05/15 11:19:40;;;;;;;12.18;3.08;;;;;;;;;;5074682;28;20487;-77
2022/05/15 11:22:05;;;;;;;10.32;2.95;;;;;;;;;;5032357;28;20036;-77
2022/05/15 11:24:54;;;;;;;13.30;2.97;;;;;;;;;;5093549;28;20070;-77
2022/05/15 11:27:39;;;;;;;11.98;3.50;;;;;;;;;;5076757;28;20078;-78
2022/05/15 11:30:22;;;;;;;13.52;3.30;;;;;;;;;;5067686;28;20104;-78
2022/05/15 11:32:53;;;;;;;9.70;2.60;;;;;;;;;;5074167;28;20028;-77
2022/05/15 11:35:19;;;;;;;11.10;3.00;;;;;;;;;;5073731;28;20036;-78
2022/05/15 11:37:53;;;;;;;11.52;2.70;;;;;;;;;;5055267;28;20403;-80
2022/05/15 11:40:31;;;;;;;12.05;2.70;;;;;;;;;;5040548;28;20035;-78
2022/05/15 11:42:57;;;;;;;9.93;3.13;;;;;;;;;;5074372;28;20434;-77
2022/05/15 11:45:30;;;;;;;9.40;2.65;;;;;;;;;;5074721;28;20028;-78
2022/05/15 11:48:01;;;;;;;10.68;3.10;;;;;;;;;;5056441;28;20027;-76
2022/05/15 11:50:38;;;;;;;9.00;2.70;;;;;;;;;;5073800;28;20395;-77
2022/05/15 11:53:06;;;;;;;9.60;2.80;;;;;;;;;;5039999;28;20048;-77
2022/05/15 11:55:45;;;;;;;12.50;2.95;;;;;;;;;;5073412;28;20036;-76
2022/05/15 11:58:23;;;;;;;10.48;2.85;;;;;;;;;;5055445;28;20025;-76
2022/05/15 12:01:03;;;;;;;11.48;3.53;;;;;;;;;;5073141;28;20384;-78
2022/05/15 12:03:44;;;;;;;12.02;4.18;;;;;;;;;;5072800;28;20078;-78
2022/05/15 12:06:13;;;;;;;9.38;2.92;;;;;;;;;;5073951;28;20502;-78
2022/05/15 12:08:39;;;;;;;8.43;2.42;;;;;;;;;;5073024;28;20475;-77
2022/05/15 12:11:13;;;;;;;11.13;2.80;;;;;;;;;;5073266;28;20028;-78
2022/05/15 12:13:40;;;;;;;13.52;3.63;;;;;;;;;;5054851;28;20441;-76
2022/05/15 12:16:17;;;;;;;8.50;2.85;;;;;;;;;;5038732;28;20103;-77
2022/05/15 12:18:45;;;;;;;10.70;2.70;;;;;;;;;;5056530;28;20025;-77
2022/05/15 12:21:14;;;;;;;13.60;2.53;;;;;;;;;;5040528;28;20480;-79
2022/05/15 12:24:27;;;;;;;12.52;2.72;;;;;;;;;;5054843;28;20123;-76
2022/05/15 12:26:37;;;;;;;6.50;2.10;;;;;;;;;;5054638;28;20085;-77
2022/05/15 12:29:09;;;;;;;7.35;2.45;;;;;;;;;;5072774;28;20086;-78
2022/05/15 12:31:45;;;;;;;10.90;3.17;;;;;;;;;;5072875;28;20028;-77
2022/05/15 12:34:23;;;;;;;9.98;2.58;;;;;;;;;;5072401;28;20069;-77
2022/05/15 12:36:57;;;;;;;9.73;2.72;;;;;;;;;;5060450;28;20025;-79
2022/05/15 12:39:24;;;;;;;8.63;2.28;;;;;;;;;;5083250;28;20067;-77
2022/05/15 12:41:50;;;;;;;;;;;;;;;;;;5045120;28;20020;-77
2022/05/15 12:44:27;;;;;;;10.70;2.55;;;;;;;;;;5043989;28;19958;-78
2022/05/15 12:46:57;;;;;;;13.18;3.08;;;;;;;;;;5076025;28;20035;-76
2022/05/15 12:49:36;;;;;;;12.40;2.97;;;;;;;;;;5077626;28;20131;-78
2022/05/15 12:52:13;;;;;;;7.70;2.47;;;;;;;;;;5047471;28;20093;-76
2022/05/15 12:54:39;;;;;;;7.25;2.50;;;;;;;;;;5077912;28;20040;-78
2022/05/15 12:57:07;;;;;;;8.70;2.30;;;;;;;;;;5058935;28;20029;-77
2022/05/15 12:59:32;;;;;;;;;;;;;;;;;;5060371;28;20024;-78
2022/05/15 13:02:11;;;;;;;8.98;2.42;;;;;;;;;;5059518;28;19913;-76
2022/05/15 13:04:43;;;;;;;9.98;2.50;;;;;;;;;;5072997;28;20024;-78
2022/05/15 13:07:08;;;;;;;9.60;2.70;;;;;;;;;;5054620;28;20036;-76
2022/05/15 13:09:34;;;;;;;8.57;2.47;;;;;;;;;;5054462;28;20047;-77
2022/05/15 13:12:01;;;;;;;9.90;2.80;;;;;;;;;;5072400;28;20306;-77
2022/05/15 13:14:31;;;;;;;10.68;3.22;;;;;;;;;;5037776;28;20037;-77
2022/05/15 13:16:57;;;;;;;9.00;2.40;;;;;;;;;;5054585;28;20101;-78
2022/05/15 13:19:29;;;;;;;8.33;2.47;;;;;;;;;;5072275;28;20127;-78
2022/05/15 13:21:56;;;;;;;9.90;2.90;;;;;;;;;;5072471;28;20276;-76
2022/05/15 13:24:23;;;;;;;8.30;2.45;;;;;;;;;;5071891;28;20044;-78
2022/05/15 13:26:51;;;;;;;10.02;2.75;;;;;;;;;;5072281;28;20028;-76
2022/05/15 13:29:19;;;;;;;8.30;2.85;;;;;;;;;;5054466;28;20529;-77
2022/05/15 13:31:46;;;;;;;8.10;2.42;;;;;;;;;;5054868;28;20468;-77
2022/05/15 13:34:11;;;;;;;;;;;;;;;;;;5037487;28;20051;-78
2022/05/15 13:36:47;;;;;;;10.60;2.65;;;;;;;;;;5053887;28;20367;-78
2022/05/15 13:44:49;;;;;;;10.25;2.65;;;;;;;;;;5072587;28;20091;-78
2022/05/15 13:47:14;;;;;;;8.60;2.40;;;;;;;;;;5053862;28;20036;-77
2022/05/15 13:49:44;;;;;;;11.25;2.92;;;;;;;;;;5071834;28;20415;-79
2022/05/15 13:52:28;;;;;;;7.68;2.53;;;;;;;;;;5053762;28;20074;-77
2022/05/15 13:54:54;;;;;;;10.30;2.83;;;;;;;;;;5053729;28;20074;-79
2022/05/15 13:57:20;;;;;;;10.43;2.78;;;;;;;;;;5054397;28;20386;-78
2022/05/15 13:59:58;;;;;;;9.02;2.97;;;;;;;;;;5072531;28;20086;-78
2022/05/15 14:02:28;;;;;;;7.90;2.60;;;;;;;;;;5041754;28;20025;-76
2022/05/15 14:04:56;;;;;;;9.32;2.38;;;;;;;;;;5058862;28;20078;-79
2022/05/15 14:07:39;;;;;;;7.03;2.50;;;;;;;;;;5080056;28;20103;-78
2022/05/15 14:10:14;;;;;;;8.32;2.15;;;;;;;;;;5079981;28;20025;-80
2022/05/15 14:12:52;;;;;;;9.80;2.72;;;;;;;;;;5058917;28;20039;-80
2022/05/15 14:15:33;;;;;;;8.10;2.67;;;;;;;;;;5077530;28;20035;-77
2022/05/15 14:18:00;;;;;;;8.27;2.30;;;;;;;;;;5042833;28;20033;-78
2022/05/15 14:20:34;;;;;;;8.68;2.20;;;;;;;;;;5058368;28;20028;-76
2022/05/15 14:23:00;;;;;;;9.32;2.70;;;;;;;;;;5075609;28;20028;-79
2022/05/15 14:25:26;;;;;;;8.18;2.30;;;;;;;;;;5025054;28;20039;-79
2022/05/15 14:27:51;;;;;;;6.60;2.22;;;;;;;;;;5057532;28;20490;-79
2022/05/15 14:30:17;;;;;;;6.70;2.30;;;;;;;;;;5056970;28;20048;-78
2022/05/15 14:32:53;;;;;;;7.97;2.88;;;;;;;;;;5056956;28;20506;-79
2022/05/15 14:35:20;;;;;;;7.78;2.38;;;;;;;;;;5057475;28;20039;-78
2022/05/15 14:37:45;;;;;;;7.03;1.93;;;;;;;;;;5075085;28;20028;-77
2022/05/15 14:40:11;;;;;;;8.25;2.05;;;;;;;;;;5075059;28;20028;-79
2022/05/15 14:42:40;;;;;;;7.35;2.05;;;;;;;;;;5056845;28;20107;-80
2022/05/15 14:45:11;;;;;;;10.82;4.90;;;;;;;;;;5040910;28;20119;-78
2022/05/15 14:47:36;;;;;;;7.10;2.55;;;;;;;;;;5077311;28;20107;-80
2022/05/15 14:50:05;;;;;;;8.88;2.45;;;;;;;;;;5043214;28;20068;-80
2022/05/15 14:52:32;;;;;;;9.40;2.33;;;;;;;;;;5078072;28;20099;-78
2022/05/15 14:54:57;;;;;;;;;;;;;;;;;;5079529;28;20119;-78
2022/05/15 14:57:23;;;;;;;7.15;2.13;;;;;;;;;;5048902;28;20001;-79
2022/05/15 15:00:00;;;;;;;6.25;1.98;;;;;;;;;;5082817;28;20039;-80
2022/05/15 15:02:26;;;;;;;8.10;2.10;;;;;;;;;;5053514;28;20051;-80
2022/05/15 15:04:57;;;;;;;7.47;2.20;;;;;;;;;;5021017;28;20111;-80
2022/05/15 15:07:23;;;;;;;7.68;1.90;;;;;;;;;;5041991;28;20033;-80
2022/05/15 15:09:49;;;;;;;11.65;2.25;;;;;;;;;;5026422;28;20048;-81
2022/05/15 15:12:14;;;;;;;7.22;2.08;;;;;;;;;;5022326;28;20047;-80
2022/05/15 15:14:40;;;;;;;6.45;2.08;;;;;;;;;;5024415;28;20037;-79
2022/05/15 15:17:06;;;;;;;6.18;2.10;;;;;;;;;;5040655;28;20098;-78